Time;durP1;ratioP1;P1;durP2;ratioP2;P2;SDS_P1;SDS_P2;PMS_P1;PMS_P2;Temp;Humidity;BMP_temperature;BMP_pressure;BME280_temperature;BME280_humidity;BME280_pressure;Samples;Min_cycle;Max_cycle;Signal;HPM_P1;HPM_P2
2023/06/16 00:02:04;;;;;;;5.40;5.00;;;15.40;99.90;;;;;;5019354;28;20185;-80
2023/06/16 00:04:31;;;;;;;5.90;5.40;;;15.30;99.90;;;;;;5020344;28;20192;-79
2023/06/16 00:06:58;;;;;;;5.63;5.23;;;15.30;99.90;;;;;;5019113;28;20208;-79
2023/06/16 00:09:25;;;;;;;5.70;5.20;;;15.30;99.90;;;;;;5018482;28;20174;-80
2023/06/16 00:11:51;;;;;;;6.07;5.57;;;15.20;99.90;;;;;;5040537;28;20647;-80
2023/06/16 00:14:17;;;;;;;5.47;4.93;;;15.20;99.90;;;;;;5040075;28;20169;-79
2023/06/16 00:16:43;;;;;;;5.40;4.90;;;15.10;99.90;;;;;;5038385;28;20183;-82
2023/06/16 00:19:09;;;;;;;5.87;5.37;;;15.10;99.90;;;;;;5029583;28;20177;-81
2023/06/16 00:21:38;;;;;;;5.87;5.20;;;15.00;99.90;;;;;;5051063;28;20203;-77
2023/06/16 00:24:08;;;;;;;5.20;4.80;;;15.00;99.90;;;;;;5039640;28;20679;-78
2023/06/16 00:26:34;;;;;;;5.67;5.27;;;15.00;99.90;;;;;;5036209;28;20594;-80
2023/06/16 00:29:03;;;;;;;5.73;5.33;;;15.00;99.90;;;;;;5017862;28;20521;-78
2023/06/16 00:31:31;;;;;;;5.67;5.27;;;15.00;99.90;;;;;;5018163;28;20208;-80
2023/06/16 00:34:01;;;;;;;8.73;4.80;;;15.00;99.90;;;;;;5018305;28;20188;-80
2023/06/16 00:36:27;;;;;;;5.60;5.20;;;15.00;99.90;;;;;;5018142;28;20190;-80
2023/06/16 00:38:53;;;;;;;6.10;5.60;;;15.00;99.90;;;;;;5035797;28;20226;-79
2023/06/16 00:41:19;;;;;;;5.80;5.40;;;15.00;99.90;;;;;;5036986;28;20194;-80
2023/06/16 00:43:46;;;;;;;5.80;5.30;;;15.00;99.90;;;;;;5036563;28;20184;-79
2023/06/16 00:46:27;;;;;;;5.63;5.13;;;15.00;99.90;;;;;;5035753;28;20169;-80
2023/06/16 00:48:55;;;;;;;6.03;5.43;;;14.40;99.90;;;;;;5037771;28;20554;-80
2023/06/16 00:51:23;;;;;;;5.70;5.30;;;13.60;99.90;;;;;;5027105;28;20548;-81
2023/06/16 00:53:49;;;;;;;5.83;5.33;;;15.00;99.90;;;;;;5048377;28;20259;-81
2023/06/16 00:56:16;;;;;;;5.47;5.07;;;14.90;99.90;;;;;;5035407;28;20176;-81
2023/06/16 00:58:43;;;;;;;6.70;5.20;;;14.80;99.90;;;;;;5018365;28;20536;-81
2023/06/16 01:01:12;;;;;;;5.63;5.23;;;14.80;99.90;;;;;;5036455;28;20219;-82
2023/06/16 01:03:39;;;;;;;6.43;5.40;;;14.80;99.90;;;;;;5021217;28;20951;-80
2023/06/16 01:06:15;;;;;;;5.70;5.20;;;14.80;99.90;;;;;;5039495;28;20178;-81
2023/06/16 01:08:53;;;;;;;5.80;5.37;;;14.80;99.90;;;;;;5039066;28;20187;-79
2023/06/16 01:11:32;;;;;;;7.03;5.60;;;14.80;99.90;;;;;;5040948;28;20263;-80
2023/06/16 01:14:14;;;;;;;5.73;5.23;;;14.70;99.90;;;;;;5038274;28;20176;-79
2023/06/16 01:16:41;;;;;;;6.37;5.80;;;14.70;99.90;;;;;;5026880;28;20295;-79
2023/06/16 01:19:22;;;;;;;5.93;5.43;;;14.80;99.90;;;;;;5036269;28;20172;-82
2023/06/16 01:21:56;;;;;;;5.70;5.27;;;14.70;99.90;;;;;;5018450;28;20176;-80
2023/06/16 01:24:23;;;;;;;6.20;5.70;;;14.70;99.90;;;;;;5035732;28;20195;-78
2023/06/16 01:26:52;;;;;;;5.53;5.03;;;14.70;99.90;;;;;;5035626;28;20585;-79
2023/06/16 01:29:22;;;;;;;6.70;5.73;;;14.70;99.90;;;;;;5035244;28;20279;-80
2023/06/16 01:31:52;;;;;;;6.13;5.63;;;14.70;99.90;;;;;;5035893;28;20183;-78
2023/06/16 01:34:19;;;;;;;6.87;5.63;;;14.70;99.90;;;;;;5042552;28;20168;-80
2023/06/16 01:36:46;;;;;;;5.43;5.00;;;14.70;99.90;;;;;;5037902;28;20183;-81
2023/06/16 01:39:15;;;;;;;6.13;5.53;;;14.70;99.90;;;;;;5017502;28;20256;-78
2023/06/16 01:41:43;;;;;;;6.23;5.63;;;14.70;99.90;;;;;;5017763;28;20176;-80
2023/06/16 01:44:10;;;;;;;8.03;5.87;;;14.60;99.90;;;;;;5035713;28;20171;-81
2023/06/16 01:46:37;;;;;;;5.60;4.97;;;14.60;99.90;;;;;;5001646;28;20643;-81
2023/06/16 01:49:03;;;;;;;6.10;5.60;;;14.60;99.90;;;;;;5001690;28;20188;-80
2023/06/16 01:51:29;;;;;;;6.00;5.50;;;14.60;99.90;;;;;;5036101;28;20204;-80
2023/06/16 01:53:56;;;;;;;6.40;5.80;;;14.60;99.90;;;;;;5038080;28;20165;-78
2023/06/16 01:56:22;;;;;;;6.03;5.53;;;14.60;99.90;;;;;;5004946;28;20181;-81
2023/06/16 01:58:48;;;;;;;6.27;5.73;;;14.50;99.90;;;;;;5035615;28;20218;-79
2023/06/16 02:01:20;;;;;;;8.57;6.40;;;14.50;99.90;;;;;;5017816;28;20531;-80
2023/06/16 02:03:55;;;;;;;7.57;5.77;;;14.50;99.90;;;;;;5018870;28;20219;-81
2023/06/16 02:06:25;;;;;;;5.87;5.30;;;14.50;99.90;;;;;;5036957;28;20156;-80
2023/06/16 02:08:55;;;;;;;5.83;5.33;;;14.50;99.90;;;;;;5039567;28;20176;-80
2023/06/16 02:11:21;;;;;;;5.80;5.30;;;14.50;99.90;;;;;;5040437;28;20208;-81
2023/06/16 02:13:48;;;;;;;6.80;6.10;;;14.50;99.90;;;;;;5021910;28;20654;-79
2023/06/16 02:16:14;;;;;;;6.27;5.67;;;14.50;99.90;;;;;;5021820;28;20258;-81
2023/06/16 02:18:40;;;;;;;6.40;5.80;;;14.40;99.90;;;;;;5021335;28;20176;-80
2023/06/16 02:21:05;;;;;;;6.97;5.90;;;14.30;99.90;;;;;;5021527;28;20204;-80
2023/06/16 02:23:31;;;;;;;5.83;5.33;;;14.30;99.90;;;;;;5021193;28;20180;-83
2023/06/16 02:25:57;;;;;;;6.20;5.60;;;14.30;99.90;;;;;;5038613;28;20211;-82
2023/06/16 02:28:23;;;;;;;6.53;6.00;;;14.30;99.90;;;;;;5047676;28;20172;-81
2023/06/16 02:30:49;;;;;;;6.20;5.70;;;14.30;99.90;;;;;;5028523;28;20267;-82
2023/06/16 02:33:15;;;;;;;5.97;5.37;;;14.30;99.90;;;;;;5041083;28;20182;-81
2023/06/16 02:35:41;;;;;;;6.00;5.47;;;14.30;99.90;;;;;;5024311;28;20180;-79
2023/06/16 02:38:07;;;;;;;6.03;5.53;;;14.30;99.90;;;;;;5033523;28;20184;-83
2023/06/16 02:40:34;;;;;;;7.87;6.20;;;14.30;99.90;;;;;;5053968;28;20160;-79
2023/06/16 02:43:00;;;;;;;5.93;5.43;;;14.30;99.90;;;;;;5043056;28;20631;-78
2023/06/16 02:45:26;;;;;;;5.97;5.47;;;14.30;99.90;;;;;;5027649;28;20199;-80
2023/06/16 02:47:52;;;;;;;6.23;5.60;;;14.40;99.90;;;;;;5075794;28;20164;-84
2023/06/16 02:50:20;;;;;;;6.07;5.57;;;14.40;99.90;;;;;;5077819;28;20266;-80
2023/06/16 02:52:48;;;;;;;6.37;5.70;;;14.40;99.90;;;;;;5059433;28;20179;-80
2023/06/16 02:55:15;;;;;;;6.10;5.53;;;14.40;99.90;;;;;;5040812;28;20176;-82
2023/06/16 02:57:41;;;;;;;5.63;5.13;;;14.30;99.90;;;;;;5054666;28;20187;-79
2023/06/16 03:00:10;;;;;;;6.37;5.60;;;14.30;99.90;;;;;;5061049;28;20184;-79
2023/06/16 03:02:38;;;;;;;6.13;5.63;;;14.20;99.90;;;;;;5050292;28;20164;-80
2023/06/16 03:05:06;;;;;;;6.67;5.17;;;14.20;99.90;;;;;;5040442;28;20268;-79
2023/06/16 03:07:34;;;;;;;7.57;5.50;;;14.20;99.90;;;;;;5039247;28;20165;-79
2023/06/16 03:10:01;;;;;;;6.67;5.50;;;14.20;99.90;;;;;;5023248;28;20218;-81
2023/06/16 03:12:27;;;;;;;6.33;5.37;;;14.20;99.90;;;;;;5039333;28;20181;-79
2023/06/16 03:14:52;;;;;;;8.27;5.83;;;14.00;99.90;;;;;;5039463;28;20179;-78
2023/06/16 03:17:20;;;;;;;6.90;6.20;;;13.90;99.90;;;;;;5021925;28;20264;-81
2023/06/16 03:19:47;;;;;;;7.57;5.87;;;13.90;99.90;;;;;;5025802;28;20173;-80
2023/06/16 03:22:13;;;;;;;5.97;5.47;;;13.80;99.90;;;;;;5030035;28;21053;-79
2023/06/16 03:24:41;;;;;;;6.13;5.60;;;13.90;99.90;;;;;;5024699;28;20234;-80
2023/06/16 03:27:08;;;;;;;6.17;5.57;;;13.90;99.90;;;;;;5021209;28;20190;-80
2023/06/16 03:29:34;;;;;;;6.50;5.80;;;14.00;99.90;;;;;;5036803;28;20205;-80
2023/06/16 03:32:00;;;;;;;6.90;5.20;;;14.10;99.90;;;;;;5019511;28;20184;-82
2023/06/16 03:34:26;;;;;;;6.30;5.70;;;14.10;99.90;;;;;;5018919;28;20176;-80
2023/06/16 03:36:52;;;;;;;7.77;5.77;;;14.10;99.90;;;;;;5036341;28;20172;-78
2023/06/16 03:39:18;;;;;;;6.00;5.50;;;14.10;99.90;;;;;;5036641;28;20231;-79
2023/06/16 03:41:44;;;;;;;5.63;5.13;;;14.10;99.90;;;;;;5035834;28;20651;-81
2023/06/16 03:44:10;;;;;;;6.40;5.80;;;14.10;99.90;;;;;;5017952;28;20269;-80
2023/06/16 03:46:36;;;;;;;5.77;5.30;;;14.10;99.90;;;;;;5035655;28;20192;-80
2023/06/16 03:49:02;;;;;;;5.50;5.00;;;14.00;99.90;;;;;;5020074;28;20524;-82
2023/06/16 03:51:27;;;;;;;7.17;5.40;;;14.00;99.90;;;;;;5039287;28;20330;-81
2023/06/16 03:53:53;;;;;;;6.93;6.00;;;14.10;99.90;;;;;;5038193;28;20192;-81
2023/06/16 03:56:19;;;;;;;7.23;5.80;;;14.10;99.90;;;;;;5035512;28;20180;-82
2023/06/16 03:58:48;;;;;;;5.90;5.40;;;14.10;99.90;;;;;;5035803;28;20180;-80
2023/06/16 04:01:14;;;;;;;6.27;5.67;;;14.00;99.90;;;;;;5035853;28;20172;-83
2023/06/16 04:03:40;;;;;;;6.10;5.60;;;14.00;99.90;;;;;;5039227;28;20173;-81
2023/06/16 04:06:06;;;;;;;6.50;5.83;;;14.00;99.90;;;;;;5050665;28;20629;-79
2023/06/16 04:08:32;;;;;;;6.20;5.60;;;14.00;99.90;;;;;;5018351;28;20187;-80
2023/06/16 04:10:58;;;;;;;6.10;5.50;;;14.10;99.90;;;;;;5018292;28;20216;-84
2023/06/16 04:13:27;;;;;;;8.40;6.20;;;14.10;99.90;;;;;;5037338;28;20160;-81
2023/06/16 04:15:53;;;;;;;7.33;5.53;;;14.00;99.90;;;;;;5023866;28;20263;-80
2023/06/16 04:18:19;;;;;;;6.30;5.70;;;14.00;99.90;;;;;;5034842;28;20168;-80
2023/06/16 04:20:45;;;;;;;6.83;5.63;;;14.00;99.90;;;;;;5022970;28;20183;-81
2023/06/16 04:23:10;;;;;;;7.87;6.17;;;14.10;99.90;;;;;;5019083;28;20176;-80
2023/06/16 04:25:37;;;;;;;6.07;5.47;;;14.20;99.90;;;;;;5036400;28;20181;-79
2023/06/16 04:28:03;;;;;;;5.53;5.03;;;14.20;99.90;;;;;;5040732;28;20175;-79
2023/06/16 04:30:30;;;;;;;6.60;5.90;;;14.20;99.90;;;;;;5042220;28;20230;-79
2023/06/16 04:32:59;;;;;;;9.17;5.37;;;14.30;99.90;;;;;;5018028;28;20270;-79
2023/06/16 04:35:34;;;;;;;5.77;5.30;;;14.30;99.90;;;;;;5034739;28;20543;-81
2023/06/16 04:38:00;;;;;;;5.83;5.33;;;14.30;99.90;;;;;;5016769;28;20202;-80
2023/06/16 04:40:27;;;;;;;7.10;5.80;;;14.40;99.90;;;;;;5034321;28;20172;-80
2023/06/16 04:42:53;;;;;;;5.87;5.27;;;14.40;99.90;;;;;;5034663;28;20191;-81
2023/06/16 04:45:20;;;;;;;6.10;5.50;;;14.60;99.90;;;;;;5016654;28;20190;-80
2023/06/16 04:47:46;;;;;;;5.80;5.20;;;14.60;99.90;;;;;;5036797;28;20173;-80
2023/06/16 04:50:13;;;;;;;6.00;5.40;;;14.70;99.90;;;;;;5042069;28;20258;-82
2023/06/16 04:52:39;;;;;;;6.07;5.23;;;14.70;99.90;;;;;;5037286;28;20168;-81
2023/06/16 04:55:06;;;;;;;5.93;5.43;;;14.80;99.90;;;;;;5036501;28;20170;-79
2023/06/16 04:57:33;;;;;;;6.10;5.17;;;14.80;99.90;;;;;;5018138;28;20182;-80
2023/06/16 05:00:00;;;;;;;6.80;5.70;;;14.90;99.90;;;;;;5040791;28;20188;-79
2023/06/16 05:02:26;;;;;;;5.80;5.30;;;14.90;99.90;;;;;;5034477;28;20252;-79
2023/06/16 05:04:52;;;;;;;5.57;5.07;;;15.00;99.90;;;;;;5035465;28;20957;-77
2023/06/16 05:07:18;;;;;;;6.33;5.37;;;15.10;99.90;;;;;;5034792;28;20173;-79
2023/06/16 05:09:45;;;;;;;5.67;5.13;;;15.20;99.90;;;;;;5017267;28;20208;-78
2023/06/16 05:12:11;;;;;;;6.23;5.50;;;15.20;99.90;;;;;;5016631;28;20183;-79
2023/06/16 05:14:37;;;;;;;5.80;5.13;;;15.30;99.90;;;;;;5033674;28;20176;-77
2023/06/16 05:17:03;;;;;;;7.17;5.30;;;15.40;99.90;;;;;;5033789;28;20567;-78
2023/06/16 05:19:30;;;;;;;5.30;4.90;;;15.60;99.90;;;;;;5016002;28;20267;-81
2023/06/16 05:21:55;;;;;;;5.53;5.00;;;15.80;99.90;;;;;;5034589;28;20172;-79
2023/06/16 05:24:21;;;;;;;5.23;4.83;;;15.90;99.90;;;;;;5034369;28;20171;-81
2023/06/16 05:26:47;;;;;;;5.83;5.27;;;15.90;99.90;;;;;;5016664;28;20212;-80
2023/06/16 05:29:12;;;;;;;6.73;5.47;;;16.00;99.90;;;;;;5034031;28;20184;-79
2023/06/16 05:31:38;;;;;;;5.77;5.23;;;16.10;99.90;;;;;;5034031;28;20251;-80
2023/06/16 05:34:04;;;;;;;7.83;5.23;;;16.10;99.90;;;;;;5016929;28;20640;-79
2023/06/16 05:36:34;;;;;;;5.30;4.80;;;16.20;99.90;;;;;;5035358;28;20204;-81
2023/06/16 05:39:05;;;;;;;5.93;5.30;;;16.20;99.90;;;;;;5036176;28;20159;-80
2023/06/16 05:41:31;;;;;;;5.37;4.87;;;16.30;99.90;;;;;;5034619;28;20170;-80
2023/06/16 05:43:57;;;;;;;5.33;4.50;;;16.40;99.90;;;;;;5037245;28;20628;-80
2023/06/16 05:46:23;;;;;;;5.63;5.13;;;16.50;99.90;;;;;;5017987;28;20261;-80
2023/06/16 05:48:49;;;;;;;5.20;4.70;;;16.50;99.90;;;;;;5017711;28;20184;-81
2023/06/16 05:51:17;;;;;;;4.67;4.27;;;16.60;99.90;;;;;;5007905;28;20270;-79
2023/06/16 05:53:42;;;;;;;5.63;5.07;;;16.60;99.90;;;;;;5050728;28;20189;-80
2023/06/16 05:56:08;;;;;;;5.80;4.90;;;16.80;99.90;;;;;;5046601;28;20630;-79
2023/06/16 05:58:36;;;;;;;6.00;5.50;;;16.90;99.90;;;;;;5017709;28;20249;-77
2023/06/16 06:01:09;;;;;;;5.87;5.17;;;17.00;99.90;;;;;;5019290;28;20181;-78
2023/06/16 06:03:35;;;;;;;6.67;4.53;;;17.10;99.90;;;;;;5016862;28;20557;-79
2023/06/16 06:06:01;;;;;;;6.50;5.90;;;17.20;99.90;;;;;;5042724;28;20184;-79
2023/06/16 06:08:28;;;;;;;5.20;4.67;;;17.20;99.90;;;;;;5054331;28;20202;-79
2023/06/16 06:10:59;;;;;;;5.77;5.17;;;17.40;99.90;;;;;;5036307;28;20275;-79
2023/06/16 06:13:25;;;;;;;5.90;5.30;;;17.40;99.90;;;;;;5039848;28;20724;-79
2023/06/16 06:15:51;;;;;;;5.17;4.77;;;17.40;99.90;;;;;;5044976;28;20179;-79
2023/06/16 06:18:17;;;;;;;5.20;4.63;;;17.40;99.90;;;;;;5043762;28;20360;-79
2023/06/16 06:20:45;;;;;;;6.97;4.90;;;17.40;99.90;;;;;;5037311;28;20249;-78
2023/06/16 06:23:11;;;;;;;5.47;4.97;;;17.30;99.90;;;;;;5056427;28;20187;-78
2023/06/16 06:25:37;;;;;;;5.93;4.77;;;17.30;99.90;;;;;;5049256;28;20187;-80
2023/06/16 06:28:03;;;;;;;5.03;4.63;;;17.30;99.90;;;;;;5040569;28;20217;-79
2023/06/16 06:30:29;;;;;;;5.43;4.90;;;17.40;99.90;;;;;;5056602;28;20211;-78
2023/06/16 06:32:58;;;;;;;5.63;5.07;;;17.40;99.90;;;;;;5038880;28;20183;-78
2023/06/16 06:35:23;;;;;;;6.40;5.40;;;17.40;99.90;;;;;;5057186;28;20176;-78
2023/06/16 06:37:49;;;;;;;5.30;4.90;;;17.40;99.90;;;;;;5056340;28;20289;-78
2023/06/16 06:40:15;;;;;;;5.80;5.27;;;17.40;99.90;;;;;;5056148;28;20530;-78
2023/06/16 06:42:41;;;;;;;5.53;4.97;;;17.40;99.90;;;;;;5056320;28;20176;-78
2023/06/16 06:45:09;;;;;;;5.10;4.70;;;17.40;99.90;;;;;;5055786;28;20172;-78
2023/06/16 06:47:34;;;;;;;5.53;5.07;;;17.40;99.90;;;;;;5036463;28;20297;-76
2023/06/16 06:50:02;;;;;;;6.03;4.80;;;17.50;99.90;;;;;;5053210;28;20307;-78
2023/06/16 06:52:28;;;;;;;5.17;4.43;;;17.60;99.90;;;;;;5035584;28;20195;-80
2023/06/16 06:54:53;;;;;;;5.53;5.03;;;17.80;99.90;;;;;;5057364;28;20180;-80
2023/06/16 06:57:19;;;;;;;5.27;4.87;;;18.10;99.90;;;;;;5056989;28;20189;-79
2023/06/16 06:59:45;;;;;;;6.10;5.13;;;18.30;99.90;;;;;;5057292;28;20175;-79
2023/06/16 07:02:11;;;;;;;6.43;4.70;;;18.50;99.90;;;;;;5067079;28;20218;-80
2023/06/16 07:04:38;;;;;;;5.30;4.80;;;18.50;99.90;;;;;;5070836;28;20184;-77
2023/06/16 07:07:04;;;;;;;7.53;4.77;;;18.50;99.90;;;;;;5057576;28;20233;-78
2023/06/16 07:09:30;;;;;;;5.17;4.67;;;18.50;99.90;;;;;;5056604;28;20168;-79
2023/06/16 07:11:56;;;;;;;5.47;4.97;;;18.60;99.90;;;;;;5056625;28;20580;-80
2023/06/16 07:14:22;;;;;;;6.37;4.17;;;18.80;99.90;;;;;;5056891;28;20176;-80
2023/06/16 07:16:48;;;;;;;4.97;4.50;;;18.90;99.90;;;;;;5070693;28;20183;-78
2023/06/16 07:19:13;;;;;;;5.37;4.90;;;19.00;99.90;;;;;;5062877;28;20179;-80
2023/06/16 07:21:39;;;;;;;7.43;4.43;;;19.10;99.90;;;;;;5038903;28;20651;-79
2023/06/16 07:24:08;;;;;;;4.83;4.50;;;19.10;99.90;;;;;;5057212;28;20176;-78
2023/06/16 07:26:33;;;;;;;5.10;4.70;;;19.30;99.90;;;;;;5040049;28;20326;-79
2023/06/16 07:29:00;;;;;;;5.97;5.20;;;19.30;99.90;;;;;;5072600;28;20184;-81
2023/06/16 07:31:27;;;;;;;5.97;4.60;;;19.30;99.90;;;;;;5037158;28;20600;-79
2023/06/16 07:33:53;;;;;;;5.37;4.87;;;19.30;99.90;;;;;;5036893;28;20598;-80
2023/06/16 07:36:18;;;;;;;5.03;4.60;;;19.40;99.90;;;;;;5036239;28;20203;-79
2023/06/16 07:38:44;;;;;;;5.43;4.80;;;19.50;99.90;;;;;;5036056;28;20176;-79
2023/06/16 07:41:10;;;;;;;4.67;4.37;;;19.60;99.90;;;;;;5035977;28;20173;-79
2023/06/16 07:43:36;;;;;;;4.63;4.33;;;19.70;99.90;;;;;;5021495;28;20206;-78
2023/06/16 07:46:01;;;;;;;4.70;3.87;;;19.70;99.90;;;;;;5038843;28;20176;-79
2023/06/16 07:48:27;;;;;;;4.57;4.27;;;19.80;99.90;;;;;;5036694;28;20172;-79
2023/06/16 07:50:55;;;;;;;4.53;4.13;;;20.00;99.90;;;;;;5035543;28;20243;-79
2023/06/16 07:53:21;;;;;;;4.77;4.20;;;19.90;99.90;;;;;;5017809;28;20699;-78
2023/06/16 07:55:47;;;;;;;19.03;4.00;;;20.10;99.30;;;;;;5035919;28;20180;-80
2023/06/16 07:58:13;;;;;;;3.90;3.70;;;20.10;98.30;;;;;;5035394;28;20180;-78
2023/06/16 08:00:38;;;;;;;4.03;3.73;;;20.30;97.50;;;;;;5035589;28;20187;-79
2023/06/16 08:03:04;;;;;;;3.77;3.47;;;20.30;97.70;;;;;;5035565;28;20173;-78
2023/06/16 08:05:30;;;;;;;4.00;3.60;;;20.40;97.80;;;;;;5035360;28;20176;-78
2023/06/16 08:07:56;;;;;;;4.10;3.80;;;20.50;97.30;;;;;;5035167;28;20180;-78
2023/06/16 08:10:23;;;;;;;3.80;3.50;;;20.60;97.10;;;;;;5017418;28;20204;-78
2023/06/16 08:12:49;;;;;;;3.50;3.30;;;20.60;96.60;;;;;;5034816;28;20172;-78
2023/06/16 08:15:16;;;;;;;4.63;3.80;;;20.70;95.40;;;;;;5017467;28;20226;-78
2023/06/16 08:17:42;;;;;;;3.10;3.00;;;20.80;95.70;;;;;;5035025;28;20164;-79
2023/06/16 08:20:09;;;;;;;3.83;3.27;;;20.90;95.20;;;;;;5034760;28;20175;-78
2023/06/16 08:22:35;;;;;;;3.27;3.00;;;20.90;95.10;;;;;;5017330;28;20183;-79
2023/06/16 08:25:02;;;;;;;3.93;3.50;;;20.90;94.80;;;;;;5040020;28;20252;-80
2023/06/16 08:27:28;;;;;;;3.87;3.60;;;21.10;95.20;;;;;;5036079;28;20226;-78
2023/06/16 08:29:53;;;;;;;4.30;4.00;;;21.00;95.00;;;;;;5017474;28;20219;-80
2023/06/16 08:32:20;;;;;;;4.77;3.97;;;21.00;94.90;;;;;;5035354;28;20545;-79
2023/06/16 08:34:45;;;;;;;3.83;3.47;;;21.10;95.00;;;;;;5034648;28;20660;-79
2023/06/16 08:37:11;;;;;;;3.67;3.37;;;21.30;95.10;;;;;;5034454;28;20176;-78
2023/06/16 08:39:37;;;;;;;3.80;3.50;;;21.50;94.90;;;;;;5036047;28;20251;-80
2023/06/16 08:42:03;;;;;;;4.07;3.77;;;21.60;94.40;;;;;;5035930;28;20176;-78
2023/06/16 08:44:32;;;;;;;4.57;4.17;;;21.60;94.30;;;;;;5035132;28;20650;-79
2023/06/16 08:46:58;;;;;;;3.87;3.50;;;21.60;94.10;;;;;;5016658;28;20191;-78
2023/06/16 08:49:25;;;;;;;3.57;3.37;;;21.80;97.10;;;;;;5019521;28;20220;-80
2023/06/16 08:51:54;;;;;;;3.73;3.43;;;21.90;94.50;;;;;;5039149;28;20188;-81
2023/06/16 08:54:23;;;;;;;3.87;3.53;;;22.10;95.00;;;;;;5034766;28;20195;-80
2023/06/16 08:56:51;;;;;;;3.50;3.30;;;22.10;93.40;;;;;;5034783;28;20234;-80
2023/06/16 08:59:19;;;;;;;3.40;3.10;;;22.00;92.60;;;;;;5034453;28;20172;-79
2023/06/16 09:01:46;;;;;;;3.37;3.17;;;22.10;91.20;;;;;;5034958;28;20181;-78
2023/06/16 09:04:13;;;;;;;3.60;3.40;;;22.20;91.80;;;;;;5028754;28;20180;-78
2023/06/16 09:06:56;;;;;;;3.67;3.47;;;22.30;91.60;;;;;;5045768;28;20227;-80
2023/06/16 09:09:25;;;;;;;3.70;3.43;;;22.40;89.50;;;;;;5016553;28;20664;-80
2023/06/16 09:12:08;;;;;;;4.40;3.50;;;22.40;89.10;;;;;;5016065;28;20197;-79
2023/06/16 09:14:37;;;;;;;3.30;3.10;;;22.40;90.10;;;;;;5016902;28;20632;-79
2023/06/16 09:17:05;;;;;;;3.50;3.30;;;22.50;90.30;;;;;;5038294;28;20172;-80
2023/06/16 09:19:35;;;;;;;4.00;3.47;;;22.60;89.40;;;;;;5019403;28;20176;-78
2023/06/16 09:22:02;;;;;;;3.70;3.40;;;22.60;89.30;;;;;;5038393;28;20175;-79
2023/06/16 09:24:28;;;;;;;3.27;3.07;;;22.70;90.10;;;;;;5016067;28;20655;-79
2023/06/16 09:27:02;;;;;;;3.77;3.57;;;22.80;90.10;;;;;;5034072;28;20169;-80
2023/06/16 09:29:29;;;;;;;3.30;3.10;;;22.80;89.10;;;;;;5033568;28;20172;-79
2023/06/16 09:32:08;;;;;;;4.20;3.80;;;22.90;88.00;;;;;;5034333;28;20172;-79
2023/06/16 09:34:35;;;;;;;3.77;3.47;;;22.90;87.90;;;;;;5016395;28;20164;-80
2023/06/16 09:37:04;;;;;;;3.93;3.67;;;22.90;87.80;;;;;;5015467;28;20172;-80
2023/06/16 09:39:29;;;;;;;3.90;3.60;;;23.00;86.30;;;;;;5015805;28;20528;-79
2023/06/16 09:41:56;;;;;;;3.77;3.50;;;23.00;85.90;;;;;;5035407;28;20176;-79
2023/06/16 09:44:25;;;;;;;3.87;3.50;;;23.10;85.90;;;;;;5035858;28;20640;-80
2023/06/16 09:46:51;;;;;;;4.07;3.30;;;23.10;86.60;;;;;;5017569;28;20194;-79
2023/06/16 09:49:27;;;;;;;3.40;3.20;;;23.10;86.80;;;;;;5032197;28;20217;-78
2023/06/16 09:51:56;;;;;;;3.57;3.23;;;23.30;87.60;;;;;;5032067;28;20231;-77
2023/06/16 09:54:23;;;;;;;4.10;3.70;;;23.20;86.80;;;;;;5033511;28;20180;-77
2023/06/16 09:56:50;;;;;;;3.72;3.42;;;23.30;86.90;;;;;;5033132;28;20172;-79
2023/06/16 09:59:16;;;;;;;4.07;3.60;;;23.20;86.80;;;;;;5033465;28;20310;-79
2023/06/16 10:01:43;;;;;;;3.92;3.63;;;23.20;87.20;;;;;;5037416;28;20176;-79
2023/06/16 10:04:10;;;;;;;3.73;3.23;;;23.30;86.70;;;;;;5056620;28;20167;-78
2023/06/16 10:06:56;;;;;;;3.37;3.17;;;23.30;86.90;;;;;;5036791;28;20173;-79
2023/06/16 10:09:28;;;;;;;3.57;3.37;;;23.20;86.30;;;;;;5033248;28;20157;-79
2023/06/16 10:11:56;;;;;;;3.78;3.58;;;23.20;86.60;;;;;;5033334;28;20172;-79
2023/06/16 10:14:29;;;;;;;3.70;3.50;;;23.40;86.50;;;;;;5032694;28;20161;-80
2023/06/16 10:16:56;;;;;;;4.00;3.55;;;23.60;87.20;;;;;;5033349;28;20648;-79
2023/06/16 10:19:23;;;;;;;4.00;3.70;;;23.70;84.80;;;;;;5033335;28;20557;-79
2023/06/16 10:21:53;;;;;;;3.80;3.50;;;23.80;84.70;;;;;;5032952;28;20172;-80
2023/06/16 10:24:20;;;;;;;4.20;3.90;;;23.90;82.30;;;;;;5014954;28;20587;-80
2023/06/16 10:26:47;;;;;;;4.05;3.75;;;24.00;83.50;;;;;;5015828;28;20168;-80
2023/06/16 10:29:16;;;;;;;3.85;3.55;;;24.00;83.10;;;;;;5045471;28;20198;-80
2023/06/16 10:31:45;;;;;;;4.40;3.47;;;23.90;82.10;;;;;;5052934;28;20278;-80
2023/06/16 10:34:19;;;;;;;3.85;3.58;;;23.80;81.70;;;;;;5039116;28;20645;-78
2023/06/16 10:36:46;;;;;;;4.18;3.63;;;23.90;82.10;;;;;;5044115;28;20176;-79
2023/06/16 10:39:18;;;;;;;4.20;3.90;;;23.70;81.70;;;;;;5042851;28;20179;-82
2023/06/16 10:41:51;;;;;;;4.03;3.72;;;23.60;81.70;;;;;;5039304;28;20240;-78
2023/06/16 10:44:30;;;;;;;4.07;3.78;;;23.50;82.60;;;;;;5039330;28;20164;-79
2023/06/16 10:47:08;;;;;;;3.95;3.60;;;23.50;82.30;;;;;;5037894;28;20173;-80
2023/06/16 10:49:50;;;;;;;4.00;3.70;;;23.60;82.90;;;;;;5020275;28;20264;-80
2023/06/16 10:52:34;;;;;;;3.63;3.40;;;23.50;82.00;;;;;;5037760;28;20227;-78
2023/06/16 10:55:17;;;;;;;3.70;3.42;;;23.60;83.00;;;;;;5038148;28;20265;-80
2023/06/16 10:57:44;;;;;;;3.75;3.53;;;23.60;82.90;;;;;;5041824;28;20175;-79
2023/06/16 11:00:13;;;;;;;3.50;3.28;;;23.60;82.80;;;;;;5038001;28;20633;-79
2023/06/16 11:02:50;;;;;;;3.65;3.45;;;23.80;83.50;;;;;;5037781;28;20169;-79
2023/06/16 11:05:18;;;;;;;3.90;3.60;;;24.00;81.60;;;;;;5040390;28;20163;-80
2023/06/16 11:08:11;;;;;;;3.90;3.60;;;24.10;82.70;;;;;;5054590;28;20168;-78
2023/06/16 11:10:52;;;;;;;4.03;3.83;;;24.00;81.50;;;;;;5018297;28;20212;-81
2023/06/16 11:13:24;;;;;;;3.72;3.47;;;23.90;80.60;;;;;;5037301;28;20180;-81
2023/06/16 11:15:52;;;;;;;3.60;3.40;;;23.90;81.10;;;;;;5036778;28;20165;-80
2023/06/16 11:18:22;;;;;;;5.05;3.17;;;23.80;82.60;;;;;;5037558;28;20177;-80
2023/06/16 11:20:48;;;;;;;4.18;3.88;;;23.60;81.00;;;;;;5036783;28;20161;-78
2023/06/16 11:23:14;;;;;;;4.40;3.97;;;23.50;81.60;;;;;;5036444;28;20179;-80
2023/06/16 11:25:39;;;;;;;4.80;4.40;;;23.30;79.90;;;;;;5036063;28;20675;-79
2023/06/16 11:28:05;;;;;;;4.13;3.80;;;23.20;81.10;;;;;;5036675;28;20165;-80
2023/06/16 11:30:32;;;;;;;4.85;3.58;;;23.20;84.60;;;;;;5036864;28;20219;-80
2023/06/16 11:32:58;;;;;;;4.32;4.03;;;23.20;81.00;;;;;;5018536;28;20185;-81
2023/06/16 11:35:31;;;;;;;3.92;3.63;;;23.00;81.00;;;;;;5035304;28;20629;-81
2023/06/16 11:37:57;;;;;;;5.10;3.93;;;22.80;82.50;;;;;;5034898;28;20640;-81
2023/06/16 11:40:25;;;;;;;4.47;4.10;;;22.80;82.60;;;;;;5016907;28;20188;-80
2023/06/16 11:42:56;;;;;;;4.43;3.90;;;22.70;82.80;;;;;;5035223;28;20263;-80
2023/06/16 11:45:23;;;;;;;4.67;3.73;;;22.70;83.70;;;;;;5034564;28;20183;-80
2023/06/16 11:47:49;;;;;;;4.93;3.97;;;22.90;84.00;;;;;;5034661;28;20200;-82
2023/06/16 11:50:18;;;;;;;3.60;3.40;;;23.10;83.00;;;;;;5034487;28;20232;-82
2023/06/16 11:52:45;;;;;;;3.78;3.50;;;23.20;82.90;;;;;;5017093;28;20345;-79
2023/06/16 11:55:11;;;;;;;3.72;3.42;;;23.30;81.70;;;;;;5034970;28;20176;-79
2023/06/16 11:57:40;;;;;;;4.03;3.70;;;23.40;80.20;;;;;;5035799;28;20267;-80
2023/06/16 12:00:08;;;;;;;3.92;3.63;;;23.60;81.60;;;;;;5034650;28;20164;-79
2023/06/16 12:02:34;;;;;;;4.15;3.85;;;23.90;83.20;;;;;;5035132;28;20195;-79
2023/06/16 12:05:03;;;;;;;3.78;3.58;;;24.00;82.30;;;;;;5035484;28;20180;-79
2023/06/16 12:07:30;;;;;;;4.45;4.05;;;24.30;84.60;;;;;;5046714;28;20172;-80
2023/06/16 12:09:56;;;;;;;4.22;3.90;;;24.40;85.80;;;;;;5036489;28;20224;-80
2023/06/16 12:12:25;;;;;;;4.30;4.00;;;24.50;85.50;;;;;;5017483;28;20582;-79
2023/06/16 12:14:51;;;;;;;3.97;3.67;;;24.50;84.70;;;;;;5019016;28;20580;-78
2023/06/16 12:17:18;;;;;;;3.92;3.63;;;24.60;84.10;;;;;;5038606;28;20164;-78
2023/06/16 12:19:46;;;;;;;4.45;4.15;;;24.50;85.10;;;;;;5041635;28;20181;-79
2023/06/16 12:22:12;;;;;;;4.28;3.97;;;24.50;85.50;;;;;;5038259;28;20175;-80
2023/06/16 12:24:40;;;;;;;4.20;3.80;;;24.50;82.30;;;;;;5034822;28;20184;-80
2023/06/16 12:27:06;;;;;;;4.25;3.80;;;24.50;84.60;;;;;;5034263;28;20173;-80
2023/06/16 12:29:32;;;;;;;5.13;3.63;;;24.40;82.80;;;;;;5016838;28;20176;-80
2023/06/16 12:32:06;;;;;;;4.30;4.00;;;24.20;79.20;;;;;;5036275;28;20302;-79
2023/06/16 12:34:35;;;;;;;4.60;4.30;;;24.20;80.90;;;;;;5034708;28;20156;-80
2023/06/16 12:37:07;;;;;;;4.60;4.28;;;24.30;84.30;;;;;;5033939;28;20168;-80
2023/06/16 12:39:40;;;;;;;6.18;4.00;;;24.40;83.20;;;;;;5017098;28;20191;-80
2023/06/16 12:42:10;;;;;;;4.47;3.78;;;24.40;85.00;;;;;;5033993;28;20168;-78
2023/06/16 12:44:43;;;;;;;3.80;3.55;;;24.40;85.80;;;;;;5033907;28;20176;-81
2023/06/16 12:47:10;;;;;;;4.40;4.00;;;24.50;87.60;;;;;;5040476;28;20171;-81
2023/06/16 12:49:36;;;;;;;4.90;4.50;;;24.30;89.40;;;;;;5040457;28;20157;-80
2023/06/16 12:52:02;;;;;;;4.65;4.25;;;23.70;86.00;;;;;;5056915;28;20169;-81